createdAt,value
2022-12-17T00:00:47.982Z,83.44
2022-12-17T00:01:47.869Z,83.20
2022-12-17T00:02:47.958Z,83.30
2022-12-17T00:03:47.965Z,82.89
2022-12-17T00:04:47.839Z,83.20
2022-12-17T00:05:47.822Z,83.51
2022-12-17T00:06:47.810Z,82.99
2022-12-17T00:07:47.797Z,82.99
2022-12-17T00:08:47.794Z,82.89
2022-12-17T00:09:50.351Z,82.99
2022-12-17T00:10:47.771Z,83.09
2022-12-17T00:11:47.757Z,82.99
2022-12-17T00:12:47.744Z,83.09
2022-12-17T00:13:47.751Z,83.20
2022-12-17T00:14:47.736Z,83.30
2022-12-17T00:15:47.754Z,82.99
2022-12-17T00:16:47.703Z,83.09
2022-12-17T00:17:47.692Z,83.09
2022-12-17T00:18:47.684Z,82.99
2022-12-17T00:19:47.681Z,83.20
2022-12-17T00:20:47.661Z,83.30
2022-12-17T00:21:47.654Z,83.51
2022-12-17T00:22:47.638Z,83.09
2022-12-17T00:23:47.627Z,83.30
2022-12-17T00:24:47.631Z,83.30
2022-12-17T00:25:47.609Z,83.20
2022-12-17T00:26:47.600Z,82.99
2022-12-17T00:27:47.585Z,83.51
2022-12-17T00:28:47.576Z,83.20
2022-12-17T00:29:47.598Z,82.99
2022-12-17T00:30:47.556Z,83.51
2022-12-17T00:31:47.596Z,83.51
2022-12-17T00:32:47.535Z,83.51
2022-12-17T00:33:47.524Z,83.40
2022-12-17T00:34:47.527Z,83.51
2022-12-17T00:35:47.502Z,83.30
2022-12-17T00:36:47.497Z,83.62
2022-12-17T00:37:47.521Z,83.62
2022-12-17T00:38:47.469Z,83.30
2022-12-17T00:39:47.468Z,83.51
2022-12-17T00:40:47.447Z,83.83
2022-12-17T00:41:47.439Z,83.72
2022-12-17T00:42:47.428Z,83.72
2022-12-17T00:43:47.418Z,83.62
2022-12-17T00:44:47.419Z,83.40
2022-12-17T00:45:47.413Z,83.51
2022-12-17T00:46:47.443Z,83.93
2022-12-17T00:47:47.373Z,83.26
2022-12-17T00:48:47.364Z,83.26
2022-12-17T00:49:47.366Z,83.37
2022-12-17T00:50:47.343Z,83.09
2022-12-17T00:51:47.334Z,82.99
2022-12-17T00:52:47.323Z,83.09
2022-12-17T00:53:47.308Z,83.30
2022-12-17T00:54:47.311Z,83.30
2022-12-17T00:55:47.292Z,83.40
2022-12-17T00:56:47.303Z,83.30
2022-12-17T00:57:47.291Z,83.72
2022-12-17T00:58:47.257Z,83.40
2022-12-17T00:59:47.257Z,83.40
2022-12-17T01:00:47.282Z,83.51
2022-12-17T01:01:47.425Z,83.62
2022-12-17T01:02:47.471Z,83.83
2022-12-17T01:03:47.205Z,83.72
2022-12-17T01:04:47.205Z,83.93
2022-12-17T01:05:47.181Z,83.83
2022-12-17T01:06:47.177Z,83.93
2022-12-17T01:07:47.160Z,83.83
2022-12-17T01:08:47.154Z,83.72
2022-12-17T01:09:47.166Z,83.72
2022-12-17T01:10:47.177Z,83.83
2022-12-17T01:11:47.121Z,84.14
2022-12-17T01:12:47.113Z,84.24
2022-12-17T01:13:47.106Z,83.93
2022-12-17T01:14:47.098Z,84.03
2022-12-17T01:15:47.083Z,84.03
2022-12-17T01:16:47.103Z,84.24
2022-12-17T01:17:47.073Z,84.45
2022-12-17T01:18:47.050Z,84.45
2022-12-17T01:19:47.044Z,84.10
2022-12-17T01:20:47.030Z,84.31
2022-12-17T01:21:47.013Z,84.34
2022-12-17T01:22:47.006Z,84.20
2022-12-17T01:23:46.995Z,84.52
2022-12-17T01:24:46.995Z,84.10
2022-12-17T01:25:46.978Z,84.24
2022-12-17T01:26:46.968Z,84.20
2022-12-17T01:27:46.951Z,84.14
2022-12-17T01:28:46.941Z,84.41
2022-12-17T01:29:46.942Z,84.45
2022-12-17T01:30:46.925Z,84.77
2022-12-17T01:31:47.028Z,84.97
2022-12-17T01:32:46.903Z,84.87
2022-12-17T01:33:46.990Z,84.87
2022-12-17T01:34:46.888Z,84.77
2022-12-17T01:35:46.869Z,85.08
2022-12-17T01:36:46.860Z,84.56
2022-12-17T01:37:46.845Z,85.39
2022-12-17T01:38:46.838Z,85.39
2022-12-17T01:39:46.837Z,85.39
2022-12-17T01:40:46.817Z,84.97
2022-12-17T01:41:46.806Z,85.18
2022-12-17T01:42:46.799Z,85.91
2022-12-17T01:43:46.782Z,85.71
2022-12-17T01:44:46.783Z,85.81
2022-12-17T01:45:46.908Z,85.71
2022-12-17T01:46:46.752Z,85.71
2022-12-17T01:47:46.738Z,85.91
2022-12-17T01:48:46.731Z,85.96
2022-12-17T01:49:46.748Z,86.13
2022-12-17T01:50:46.709Z,86.06
2022-12-17T01:51:46.702Z,86.02
2022-12-17T01:52:46.685Z,85.91
2022-12-17T01:53:46.680Z,86.02
2022-12-17T01:54:46.696Z,85.81
2022-12-17T01:55:46.655Z,85.60
2022-12-17T01:56:46.644Z,85.29
2022-12-17T01:57:46.636Z,84.77
2022-12-17T01:58:46.636Z,84.97
2022-12-17T01:59:46.614Z,84.66
2022-12-17T02:00:46.628Z,84.97
2022-12-17T02:01:46.865Z,85.18
2022-12-17T02:02:46.660Z,84.97
2022-12-17T02:03:46.573Z,84.87
2022-12-17T02:04:46.562Z,85.08
2022-12-17T02:05:46.589Z,84.77
2022-12-17T02:06:46.539Z,85.18
2022-12-17T02:07:46.600Z,85.08
2022-12-17T02:08:46.516Z,85.08
2022-12-17T02:09:46.507Z,85.08
2022-12-17T02:10:46.514Z,84.97
2022-12-17T02:11:46.492Z,85.08
2022-12-17T02:12:46.478Z,85.08
2022-12-17T02:13:46.483Z,84.87
2022-12-17T02:14:46.457Z,85.08
2022-12-17T02:15:46.455Z,84.87
2022-12-17T02:16:46.543Z,84.97
2022-12-17T02:17:46.423Z,84.87
2022-12-17T02:18:46.410Z,85.39
2022-12-17T02:19:46.401Z,85.39
2022-12-17T02:20:46.399Z,85.29
2022-12-17T02:21:46.409Z,85.39
2022-12-17T02:22:46.371Z,85.29
2022-12-17T02:23:46.360Z,85.50
2022-12-17T02:24:46.349Z,85.39
2022-12-17T02:25:46.365Z,85.29
2022-12-17T02:26:46.335Z,85.39
2022-12-17T02:27:46.321Z,85.39
2022-12-17T02:28:46.307Z,85.50
2022-12-17T02:29:46.297Z,85.50
2022-12-17T02:30:46.299Z,85.50
2022-12-17T02:31:46.357Z,85.39
2022-12-17T02:32:46.263Z,85.33
2022-12-17T02:33:46.256Z,85.43
2022-12-17T02:34:46.268Z,85.22
2022-12-17T02:35:46.246Z,85.12
2022-12-17T02:36:46.222Z,85.64
2022-12-17T02:37:46.234Z,85.22
2022-12-17T02:38:46.205Z,85.85
2022-12-17T02:39:46.191Z,85.96
2022-12-17T02:40:53.233Z,85.96
2022-12-17T02:41:46.171Z,85.96
2022-12-17T02:42:46.157Z,85.85
2022-12-17T02:43:46.148Z,85.64
2022-12-17T02:44:46.136Z,86.06
2022-12-17T02:45:46.198Z,85.74
2022-12-17T02:46:46.116Z,85.85
2022-12-17T02:47:46.106Z,86.06
2022-12-17T02:48:46.094Z,86.06
2022-12-17T02:49:46.085Z,85.74
2022-12-17T02:50:46.088Z,85.96
2022-12-17T02:51:46.063Z,85.91
2022-12-17T02:52:46.052Z,85.96
2022-12-17T02:53:46.057Z,86.06
2022-12-17T02:54:46.030Z,85.96
2022-12-17T02:55:46.029Z,85.64
2022-12-17T02:56:46.014Z,86.27
2022-12-17T02:57:50.796Z,86.06
2022-12-17T02:58:46.989Z,85.85
2022-12-17T02:59:45.992Z,85.85
2022-12-17T03:00:46.011Z,86.06
2022-12-17T03:01:46.113Z,85.96
2022-12-17T03:02:46.087Z,86.06
2022-12-17T03:03:50.128Z,85.96
2022-12-17T03:04:45.924Z,85.74
2022-12-17T03:05:46.268Z,85.85
2022-12-17T03:06:45.903Z,86.06
2022-12-17T03:07:45.895Z,86.06
2022-12-17T03:08:45.881Z,86.06
2022-12-17T03:09:45.912Z,86.10
2022-12-17T03:10:45.871Z,86.06
2022-12-17T03:11:45.851Z,85.99
2022-12-17T03:12:45.840Z,86.06
2022-12-17T03:13:45.830Z,85.96
2022-12-17T03:14:45.818Z,85.89
2022-12-17T03:15:45.822Z,86.27
2022-12-17T03:16:45.846Z,86.31
2022-12-17T03:17:45.787Z,86.27
2022-12-17T03:18:45.776Z,86.06
2022-12-17T03:19:45.771Z,86.10
2022-12-17T03:20:45.783Z,86.72
2022-12-17T03:21:45.754Z,86.47
2022-12-17T03:22:45.733Z,86.52
2022-12-17T03:23:45.724Z,86.52
2022-12-17T03:24:45.712Z,86.58
2022-12-17T03:25:45.728Z,86.10
2022-12-17T03:26:45.692Z,85.99
2022-12-17T03:27:45.682Z,86.47
2022-12-17T03:28:45.668Z,86.47
2022-12-17T03:29:45.662Z,86.58
2022-12-17T03:30:48.903Z,86.52
2022-12-17T03:31:45.642Z,86.47
2022-12-17T03:32:45.629Z,86.52
2022-12-17T03:33:45.619Z,86.06
2022-12-17T03:34:45.608Z,86.16
2022-12-17T03:35:45.609Z,86.10
2022-12-17T03:36:45.585Z,85.96
2022-12-17T03:37:45.576Z,85.96
2022-12-17T03:38:45.563Z,86.58
2022-12-17T03:39:45.557Z,86.41
2022-12-17T03:40:45.554Z,86.58
2022-12-17T03:41:45.557Z,86.37
2022-12-17T03:42:45.521Z,86.58
2022-12-17T03:43:45.514Z,86.47
2022-12-17T03:44:45.502Z,85.96
2022-12-17T03:45:45.551Z,86.16
2022-12-17T03:46:45.480Z,86.31
2022-12-17T03:47:45.472Z,85.74
2022-12-17T03:48:45.459Z,85.89
2022-12-17T03:49:45.450Z,85.78
2022-12-17T03:50:45.447Z,85.99
2022-12-17T03:51:45.432Z,85.89
2022-12-17T03:52:45.426Z,85.89
2022-12-17T03:53:45.408Z,86.10
2022-12-17T03:54:45.396Z,85.89
2022-12-17T03:55:45.395Z,86.31
2022-12-17T03:56:45.375Z,86.20
2022-12-17T03:57:45.388Z,86.72
2022-12-17T03:58:45.357Z,86.20
2022-12-17T03:59:45.344Z,86.62
2022-12-17T04:00:45.348Z,86.72
2022-12-17T04:01:45.465Z,86.83
2022-12-17T04:02:45.507Z,86.93
2022-12-17T04:03:45.330Z,86.93
2022-12-17T04:04:45.291Z,87.04
2022-12-17T04:05:45.295Z,87.04
2022-12-17T04:06:45.269Z,86.72
2022-12-17T04:07:45.260Z,86.93
2022-12-17T04:08:45.246Z,86.72
2022-12-17T04:09:45.253Z,86.62
2022-12-17T04:10:45.237Z,86.93
2022-12-17T04:11:45.218Z,86.72
2022-12-17T04:12:45.205Z,86.72
2022-12-17T04:13:45.561Z,86.72
2022-12-17T04:14:45.185Z,86.83
2022-12-17T04:15:45.227Z,86.93
2022-12-17T04:16:45.166Z,86.72
2022-12-17T04:17:45.165Z,86.62
2022-12-17T04:18:45.141Z,86.72
2022-12-17T04:19:45.133Z,86.93
2022-12-17T04:20:45.139Z,86.77
2022-12-17T04:21:45.110Z,86.77
2022-12-17T04:22:45.099Z,87.29
2022-12-17T04:23:45.093Z,87.35
2022-12-17T04:24:45.082Z,87.56
2022-12-17T04:25:45.080Z,86.93
2022-12-17T04:26:45.061Z,87.39
2022-12-17T04:27:45.050Z,87.92
2022-12-17T04:28:45.036Z,87.71
2022-12-17T04:29:45.041Z,87.46
2022-12-17T04:30:45.071Z,87.46
2022-12-17T04:31:45.006Z,87.66
2022-12-17T04:32:44.993Z,87.77
2022-12-17T04:33:44.984Z,87.66
2022-12-17T04:34:44.973Z,87.56
2022-12-17T04:35:44.973Z,87.56
2022-12-17T04:36:44.950Z,87.56
2022-12-17T04:37:44.941Z,87.15
2022-12-17T04:38:44.937Z,87.98
2022-12-17T04:39:44.921Z,87.88
2022-12-17T04:40:44.920Z,87.98
2022-12-17T04:41:44.898Z,87.35
2022-12-17T04:42:44.889Z,87.56
2022-12-17T04:43:44.882Z,87.46
2022-12-17T04:44:44.872Z,87.46
2022-12-17T04:45:44.902Z,87.66
2022-12-17T04:46:44.932Z,87.88
2022-12-17T04:47:44.835Z,87.88
2022-12-17T04:48:44.826Z,87.35
2022-12-17T04:49:44.817Z,87.25
2022-12-17T04:50:44.817Z,87.46
2022-12-17T04:51:44.794Z,87.46
2022-12-17T04:52:44.793Z,87.25
2022-12-17T04:53:44.773Z,87.25
2022-12-17T04:54:44.761Z,87.15
2022-12-17T04:55:44.770Z,87.25
2022-12-17T04:56:44.740Z,87.04
2022-12-17T04:57:44.735Z,87.25
2022-12-17T04:58:44.719Z,87.00
2022-12-17T04:59:44.721Z,87.04
2022-12-17T05:00:44.706Z,86.83
2022-12-17T05:01:44.844Z,87.04
2022-12-17T05:02:44.882Z,86.83
2022-12-17T05:03:44.766Z,86.62
2022-12-17T05:04:44.658Z,86.72
2022-12-17T05:05:44.657Z,86.72
2022-12-17T05:06:44.639Z,86.83
2022-12-17T05:07:44.624Z,86.72
2022-12-17T05:08:44.616Z,86.52
2022-12-17T05:09:44.605Z,86.62
2022-12-17T05:10:44.600Z,86.72
2022-12-17T05:11:44.580Z,86.66
2022-12-17T05:12:44.574Z,86.93
2022-12-17T05:13:44.561Z,86.72
2022-12-17T05:14:44.548Z,87.15
2022-12-17T05:15:49.741Z,87.15
2022-12-17T05:16:45.528Z,87.25
2022-12-17T05:17:44.583Z,86.87
2022-12-17T05:18:44.505Z,86.93
2022-12-17T05:19:44.500Z,87.50
2022-12-17T05:20:44.655Z,87.25
2022-12-17T05:21:44.478Z,86.98
2022-12-17T05:22:44.464Z,87.29
2022-12-17T05:23:44.456Z,87.92
2022-12-17T05:24:44.442Z,87.50
2022-12-17T05:25:44.442Z,87.50
2022-12-17T05:26:44.420Z,87.60
2022-12-17T05:27:44.411Z,87.50
2022-12-17T05:28:44.400Z,87.71
2022-12-17T05:29:44.391Z,87.60
2022-12-17T05:30:44.459Z,87.60
2022-12-17T05:31:44.478Z,87.08
2022-12-17T05:32:44.357Z,87.39
2022-12-17T05:33:44.372Z,87.18
2022-12-17T05:34:44.347Z,87.29
2022-12-17T05:35:44.325Z,87.08
2022-12-17T05:36:44.329Z,87.18
2022-12-17T05:37:44.307Z,87.39
2022-12-17T05:38:44.295Z,88.02
2022-12-17T05:39:44.286Z,87.81
2022-12-17T05:40:44.315Z,87.81
2022-12-17T05:41:44.275Z,87.81
2022-12-17T05:42:44.250Z,88.02
2022-12-17T05:43:44.242Z,87.88
2022-12-17T05:44:44.228Z,87.18
2022-12-17T05:45:44.219Z,87.25
2022-12-17T05:46:44.294Z,87.25
2022-12-17T05:47:44.199Z,87.25
2022-12-17T05:48:44.187Z,87.04
2022-12-17T05:49:44.194Z,86.83
2022-12-17T05:50:44.167Z,86.72
2022-12-17T05:51:44.172Z,86.52
2022-12-17T05:52:44.146Z,86.31
2022-12-17T05:53:44.147Z,85.78
2022-12-17T05:54:44.130Z,85.89
2022-12-17T05:55:44.121Z,85.89
2022-12-17T05:56:44.114Z,86.20
2022-12-17T05:57:44.096Z,85.99
2022-12-17T05:58:44.081Z,86.10
2022-12-17T05:59:44.079Z,86.06
2022-12-17T06:00:44.062Z,85.99
2022-12-17T06:01:44.236Z,85.22
2022-12-17T06:02:44.240Z,85.36
2022-12-17T06:03:44.214Z,85.16
2022-12-17T06:04:44.021Z,85.47
2022-12-17T06:05:44.030Z,84.80
2022-12-17T06:06:44.005Z,84.84
2022-12-17T06:07:43.987Z,85.05
2022-12-17T06:08:43.979Z,85.05
2022-12-17T06:09:43.965Z,85.12
2022-12-17T06:10:43.954Z,84.95
2022-12-17T06:11:43.953Z,84.95
2022-12-17T06:12:43.972Z,84.63
2022-12-17T06:13:43.922Z,84.63
2022-12-17T06:14:43.913Z,84.42
2022-12-17T06:15:43.985Z,84.63
2022-12-17T06:16:43.901Z,84.63
2022-12-17T06:17:43.879Z,84.53
2022-12-17T06:18:43.879Z,84.84
2022-12-17T06:19:43.856Z,84.53
2022-12-17T06:20:43.865Z,84.56
2022-12-17T06:21:43.867Z,84.53
2022-12-17T06:22:43.830Z,84.63
2022-12-17T06:23:43.840Z,84.88
2022-12-17T06:24:46.125Z,84.99
2022-12-17T06:25:43.795Z,84.88
2022-12-17T06:26:43.794Z,84.88
2022-12-17T06:27:43.774Z,85.51
2022-12-17T06:28:43.764Z,85.58
2022-12-17T06:29:43.751Z,85.26
2022-12-17T06:30:43.742Z,84.95
2022-12-17T06:31:43.892Z,85.16
2022-12-17T06:32:43.723Z,85.26
2022-12-17T06:33:43.711Z,85.36
2022-12-17T06:34:43.700Z,84.95
2022-12-17T06:35:43.688Z,84.84
2022-12-17T06:36:43.694Z,84.74
2022-12-17T06:37:43.687Z,85.16
2022-12-17T06:38:43.659Z,85.26
2022-12-17T06:39:43.647Z,84.95
2022-12-17T06:40:43.637Z,84.53
2022-12-17T06:41:43.643Z,84.32
2022-12-17T06:42:43.617Z,84.11
2022-12-17T06:43:43.609Z,84.42
2022-12-17T06:44:43.595Z,84.46
2022-12-17T06:45:43.582Z,84.32
2022-12-17T06:46:43.663Z,84.05
2022-12-17T06:47:43.568Z,84.15
2022-12-17T06:48:43.557Z,84.05
2022-12-17T06:49:43.540Z,84.46
2022-12-17T06:50:43.533Z,84.56
2022-12-17T06:51:43.528Z,84.46
2022-12-17T06:52:43.513Z,84.46
2022-12-17T06:53:43.517Z,84.99
2022-12-17T06:54:43.489Z,84.46
2022-12-17T06:55:43.477Z,84.25
2022-12-17T06:56:43.484Z,84.46
2022-12-17T06:57:48.749Z,84.56
2022-12-17T06:58:44.444Z,84.88
2022-12-17T06:59:43.433Z,84.99
2022-12-17T07:00:43.474Z,84.95
2022-12-17T07:01:43.595Z,84.95
2022-12-17T07:02:43.575Z,84.74
2022-12-17T07:03:43.397Z,84.95
2022-12-17T07:04:43.383Z,84.84
2022-12-17T07:05:43.376Z,84.74
2022-12-17T07:06:43.385Z,84.88
2022-12-17T07:07:43.350Z,84.84
2022-12-17T07:08:43.342Z,84.53
2022-12-17T07:09:43.467Z,84.22
2022-12-17T07:10:43.318Z,84.46
2022-12-17T07:11:43.360Z,84.46
2022-12-17T07:12:43.297Z,84.67
2022-12-17T07:13:43.287Z,84.67
2022-12-17T07:14:43.281Z,84.67
2022-12-17T07:15:43.296Z,84.56
2022-12-17T07:16:43.361Z,84.88
2022-12-17T07:17:43.249Z,84.56
2022-12-17T07:18:43.235Z,84.67
2022-12-17T07:19:43.222Z,84.99
2022-12-17T07:20:43.217Z,84.88
2022-12-17T07:21:43.215Z,84.99
2022-12-17T07:22:43.200Z,85.09
2022-12-17T07:23:43.180Z,84.78
2022-12-17T07:24:43.170Z,84.78
2022-12-17T07:25:46.145Z,85.19
2022-12-17T07:26:43.165Z,85.09
2022-12-17T07:27:43.140Z,85.19
2022-12-17T07:28:43.129Z,84.95
2022-12-17T07:29:43.119Z,84.88
2022-12-17T07:30:43.106Z,84.99
2022-12-17T07:31:43.178Z,85.05
2022-12-17T07:32:43.084Z,84.74
2022-12-17T07:33:43.077Z,85.09
2022-12-17T07:34:43.064Z,85.05
2022-12-17T07:35:43.052Z,84.63
2022-12-17T07:36:43.055Z,84.95
2022-12-17T07:37:43.031Z,85.09
2022-12-17T07:38:43.023Z,85.05
2022-12-17T07:39:43.010Z,85.09
2022-12-17T07:40:43.004Z,84.84
2022-12-17T07:41:43.015Z,84.84
2022-12-17T07:42:42.981Z,85.05
2022-12-17T07:43:45.919Z,84.95
2022-12-17T07:44:43.957Z,84.53
2022-12-17T07:45:43.021Z,84.63
2022-12-17T07:46:42.947Z,84.32
2022-12-17T07:47:42.924Z,84.84
2022-12-17T07:48:42.914Z,84.22
2022-12-17T07:49:42.904Z,84.53
2022-12-17T07:50:42.895Z,84.32
2022-12-17T07:51:42.893Z,84.42
2022-12-17T07:52:42.873Z,84.42
2022-12-17T07:53:42.861Z,84.11
2022-12-17T07:54:42.917Z,84.22
2022-12-17T07:55:42.856Z,83.80
2022-12-17T07:56:42.845Z,83.90
2022-12-17T07:57:42.837Z,83.38
2022-12-17T07:58:42.810Z,83.59
2022-12-17T07:59:42.799Z,83.59
2022-12-17T08:00:48.971Z,83.90
2022-12-17T08:01:44.015Z,83.59
2022-12-17T08:02:42.979Z,83.06
2022-12-17T08:03:42.845Z,83.17
2022-12-17T08:04:42.746Z,83.48
2022-12-17T08:05:42.734Z,83.69
2022-12-17T08:06:42.736Z,83.59
2022-12-17T08:07:42.712Z,83.90
2022-12-17T08:08:42.704Z,83.80
2022-12-17T08:09:42.692Z,83.69
2022-12-17T08:10:42.684Z,83.69
2022-12-17T08:11:42.679Z,83.69
2022-12-17T08:12:42.663Z,83.69
2022-12-17T08:13:42.668Z,83.80
2022-12-17T08:14:42.647Z,83.38
2022-12-17T08:15:42.649Z,83.69
2022-12-17T08:16:42.719Z,83.69
2022-12-17T08:17:42.609Z,83.44
2022-12-17T08:18:42.598Z,83.97
2022-12-17T08:19:42.588Z,83.76
2022-12-17T08:20:42.592Z,83.76
2022-12-17T08:21:42.579Z,83.97
2022-12-17T08:22:42.558Z,83.59
2022-12-17T08:23:42.563Z,83.90
2022-12-17T08:24:42.545Z,83.80
2022-12-17T08:25:42.523Z,83.69
2022-12-17T08:26:47.564Z,83.97
2022-12-17T08:27:43.497Z,83.69
2022-12-17T08:28:50.607Z,83.55
2022-12-17T08:29:43.533Z,83.80
2022-12-17T08:30:42.504Z,83.27
2022-12-17T08:31:42.470Z,83.80
2022-12-17T08:32:42.466Z,83.34
2022-12-17T08:33:42.438Z,83.59
2022-12-17T08:34:42.430Z,83.55
2022-12-17T08:35:42.419Z,83.65
2022-12-17T08:36:42.431Z,83.76
2022-12-17T08:37:42.399Z,83.65
2022-12-17T08:38:42.405Z,83.76
2022-12-17T08:39:42.372Z,83.76
2022-12-17T08:41:33.149Z,84.11
2022-12-17T08:42:33.123Z,83.59
2022-12-17T08:43:33.269Z,83.90
2022-12-17T08:44:33.099Z,83.69
2022-12-17T08:45:33.220Z,83.97
2022-12-17T08:46:33.114Z,83.90
2022-12-17T08:47:33.081Z,83.86
2022-12-17T08:48:33.062Z,83.44
2022-12-17T08:49:33.055Z,83.86
2022-12-17T08:50:33.044Z,83.65
2022-12-17T08:51:33.030Z,83.76
2022-12-17T08:52:33.029Z,83.03
2022-12-17T08:53:35.016Z,83.44
2022-12-17T08:54:32.997Z,83.13
2022-12-17T08:55:32.989Z,83.23
2022-12-17T08:56:32.975Z,83.44
2022-12-17T08:57:32.981Z,82.92
2022-12-17T08:58:32.987Z,83.03
2022-12-17T08:59:32.945Z,82.50
2022-12-17T09:00:32.933Z,82.50
2022-12-17T09:01:33.101Z,82.50
2022-12-17T09:02:33.089Z,82.19
2022-12-17T09:03:32.987Z,82.19
2022-12-17T09:04:32.891Z,82.60
2022-12-17T09:05:32.884Z,82.60
2022-12-17T09:06:38.775Z,82.82
2022-12-17T09:07:33.877Z,82.71
2022-12-17T09:08:32.852Z,82.40
2022-12-17T09:09:32.840Z,82.54
2022-12-17T09:10:32.840Z,82.40
2022-12-17T09:11:32.820Z,82.50
2022-12-17T09:12:32.821Z,82.50
2022-12-17T09:13:32.883Z,82.92
2022-12-17T09:14:32.788Z,82.50
2022-12-17T09:15:32.777Z,82.65
2022-12-17T09:16:32.814Z,82.09
2022-12-17T09:17:32.787Z,82.19
2022-12-17T09:18:32.748Z,82.43
2022-12-17T09:19:32.736Z,82.29
2022-12-17T09:20:32.724Z,82.50
2022-12-17T09:21:32.717Z,82.82
2022-12-17T09:22:32.713Z,82.50
2022-12-17T09:23:32.694Z,82.60
2022-12-17T09:24:32.686Z,82.71
2022-12-17T09:25:32.674Z,82.71
2022-12-17T09:26:32.662Z,82.82
2022-12-17T09:27:32.665Z,82.60
2022-12-17T09:28:32.640Z,82.60
2022-12-17T09:29:32.631Z,82.09
2022-12-17T09:30:32.686Z,82.29
2022-12-17T09:31:37.225Z,82.29
2022-12-17T09:32:33.609Z,81.98
2022-12-17T09:33:32.744Z,82.19
2022-12-17T09:34:32.578Z,82.19
2022-12-17T09:35:32.569Z,82.29
2022-12-17T09:36:32.558Z,82.29
2022-12-17T09:37:32.558Z,82.09
2022-12-17T09:38:32.537Z,82.09
2022-12-17T09:39:32.528Z,82.19
2022-12-17T09:40:32.541Z,82.40
2022-12-17T09:41:32.516Z,82.19
2022-12-17T09:42:32.516Z,82.71
2022-12-17T09:43:32.492Z,82.71
2022-12-17T09:44:32.477Z,82.82
2022-12-17T09:45:32.464Z,82.82
2022-12-17T09:46:32.484Z,82.50
2022-12-17T09:47:32.454Z,82.82
2022-12-17T09:48:32.859Z,82.82
2022-12-17T09:49:32.448Z,82.92
2022-12-17T09:50:32.415Z,82.71
2022-12-17T09:51:32.400Z,82.60
2022-12-17T09:52:32.400Z,82.19
2022-12-17T09:53:32.433Z,82.29
2022-12-17T09:54:32.370Z,82.60
2022-12-17T09:55:32.357Z,82.29
2022-12-17T09:56:32.354Z,82.40
2022-12-17T09:57:32.353Z,82.29
2022-12-17T09:58:32.335Z,82.50
2022-12-17T09:59:32.316Z,82.60
2022-12-17T10:00:32.307Z,82.67
2022-12-17T10:01:32.518Z,82.57
2022-12-17T10:02:32.537Z,82.46
2022-12-17T10:03:32.334Z,82.40
2022-12-17T10:04:32.266Z,82.05
2022-12-17T10:05:32.272Z,82.26
2022-12-17T10:06:32.247Z,82.40
2022-12-17T10:07:32.248Z,82.36
2022-12-17T10:08:32.229Z,82.26
2022-12-17T10:09:32.211Z,82.05
2022-12-17T10:10:32.204Z,82.09
2022-12-17T10:11:34.740Z,81.87
2022-12-17T10:12:32.194Z,82.29
2022-12-17T10:13:32.171Z,82.05
2022-12-17T10:14:32.163Z,82.05
2022-12-17T10:15:32.211Z,81.98
2022-12-17T10:16:32.142Z,82.09
2022-12-17T10:17:32.143Z,82.09
2022-12-17T10:18:32.125Z,82.12
2022-12-17T10:19:32.109Z,82.19
2022-12-17T10:20:32.097Z,82.02
2022-12-17T10:21:32.178Z,82.50
2022-12-17T10:22:32.091Z,82.40
2022-12-17T10:23:32.069Z,82.92
2022-12-17T10:24:32.057Z,82.60
2022-12-17T10:25:32.046Z,82.40
2022-12-17T10:26:32.047Z,82.40
2022-12-17T10:27:32.038Z,82.36
2022-12-17T10:28:32.024Z,82.19
2022-12-17T10:29:32.003Z,82.40
2022-12-17T10:30:31.995Z,82.50
2022-12-17T10:31:32.026Z,82.40
2022-12-17T10:32:31.987Z,82.19
2022-12-17T10:33:31.960Z,82.26
2022-12-17T10:34:31.954Z,82.29
2022-12-17T10:35:31.942Z,82.36
2022-12-17T10:36:31.933Z,82.57
2022-12-17T10:37:31.947Z,82.15
2022-12-17T10:38:31.912Z,82.26
2022-12-17T10:39:31.898Z,82.05
2022-12-17T10:40:31.899Z,82.15
2022-12-17T10:41:31.885Z,82.26
2022-12-17T10:42:34.600Z,82.15
2022-12-17T10:43:31.856Z,82.05
2022-12-17T10:44:31.848Z,82.05
2022-12-17T10:45:31.834Z,81.95
2022-12-17T10:46:31.913Z,82.05
2022-12-17T10:47:31.830Z,82.36
2022-12-17T10:48:31.805Z,82.05
2022-12-17T10:49:31.793Z,82.15
2022-12-17T10:50:31.795Z,82.05
2022-12-17T10:51:31.771Z,82.15
2022-12-17T10:52:31.778Z,81.95
2022-12-17T10:53:31.771Z,82.36
2022-12-17T10:54:31.772Z,82.26
2022-12-17T10:55:31.732Z,82.46
2022-12-17T10:56:31.723Z,82.36
2022-12-17T10:57:31.719Z,82.12
2022-12-17T10:58:31.700Z,82.36
2022-12-17T10:59:31.698Z,81.49
2022-12-17T11:00:31.689Z,82.22
2022-12-17T11:01:31.802Z,82.05
2022-12-17T11:02:31.840Z,82.12
2022-12-17T11:03:31.703Z,82.12
2022-12-17T11:04:31.637Z,81.38
2022-12-17T11:05:31.626Z,81.07
2022-12-17T11:06:31.622Z,80.96
2022-12-17T11:07:31.663Z,80.96
2022-12-17T11:08:31.596Z,80.96
2022-12-17T11:09:31.605Z,81.07
2022-12-17T11:10:31.575Z,81.07
2022-12-17T11:11:31.563Z,81.07
2022-12-17T11:12:31.561Z,81.28
2022-12-17T11:13:31.542Z,80.86
2022-12-17T11:14:31.532Z,81.18
2022-12-17T11:15:31.521Z,81.00
2022-12-17T11:16:31.612Z,81.00
2022-12-17T11:17:31.508Z,80.90
2022-12-17T11:18:31.490Z,81.21
2022-12-17T11:19:31.482Z,81.11
2022-12-17T11:20:31.470Z,81.38
2022-12-17T11:21:31.531Z,81.42
2022-12-17T11:22:31.455Z,81.52
2022-12-17T11:23:31.435Z,82.32
2022-12-17T11:24:31.425Z,81.59
2022-12-17T11:25:31.486Z,81.73
2022-12-17T11:26:31.456Z,82.36
2022-12-17T11:27:31.420Z,82.05
2022-12-17T11:28:31.386Z,82.15
2022-12-17T11:29:31.375Z,82.01
2022-12-17T11:30:31.424Z,82.01
2022-12-17T11:31:31.419Z,82.32
2022-12-17T11:32:31.375Z,81.38
2022-12-17T11:33:31.334Z,81.63
2022-12-17T11:34:31.339Z,82.15
2022-12-17T11:35:31.324Z,82.36
2022-12-17T11:36:38.242Z,82.32
2022-12-17T11:37:32.297Z,82.22
2022-12-17T11:38:31.286Z,81.63
2022-12-17T11:39:31.275Z,81.49
2022-12-17T11:40:31.269Z,81.52
2022-12-17T11:41:31.320Z,82.15
2022-12-17T11:42:31.257Z,82.05
2022-12-17T11:43:31.229Z,82.15
2022-12-17T11:44:31.221Z,81.95
2022-12-17T11:45:31.209Z,82.26
2022-12-17T11:46:31.272Z,82.05
2022-12-17T11:47:31.218Z,82.15
2022-12-17T11:48:31.188Z,81.84
2022-12-17T11:49:31.163Z,81.95
2022-12-17T11:50:31.154Z,81.98
2022-12-17T11:51:31.144Z,82.05
2022-12-17T11:52:31.152Z,82.15
2022-12-17T11:53:31.123Z,82.15
2022-12-17T11:54:31.114Z,81.95
2022-12-17T11:55:31.101Z,82.26
2022-12-17T11:56:31.110Z,82.26
2022-12-17T11:57:31.093Z,82.15
2022-12-17T11:58:31.085Z,82.26
2022-12-17T11:59:31.059Z,82.26
2022-12-17T12:00:31.049Z,81.84
2022-12-17T12:01:31.072Z,82.26
2022-12-17T12:02:31.059Z,82.46
2022-12-17T12:03:31.121Z,81.63
2022-12-17T12:04:31.026Z,82.15
2022-12-17T12:05:30.997Z,82.26
2022-12-17T12:06:30.988Z,81.56
2022-12-17T12:07:30.980Z,81.63
2022-12-17T12:08:30.983Z,81.73
2022-12-17T12:09:30.963Z,81.46
2022-12-17T12:10:30.947Z,81.67
2022-12-17T12:11:31.917Z,81.56
2022-12-17T12:12:30.924Z,81.25
2022-12-17T12:13:38.785Z,81.77
2022-12-17T12:14:30.916Z,82.50
2022-12-17T12:15:30.894Z,81.98
2022-12-17T12:16:31.006Z,82.09
2022-12-17T12:17:30.873Z,81.98
2022-12-17T12:18:30.873Z,82.09
2022-12-17T12:19:30.859Z,82.15
2022-12-17T12:20:30.839Z,82.19
2022-12-17T12:21:30.829Z,82.26
2022-12-17T12:22:31.048Z,82.15
2022-12-17T12:23:30.857Z,82.05
2022-12-17T12:24:30.800Z,82.36
2022-12-17T12:25:30.788Z,82.36
2022-12-17T12:26:30.785Z,82.05
2022-12-17T12:27:30.764Z,82.26
2022-12-17T12:28:30.766Z,82.15
2022-12-17T12:29:30.763Z,82.46
2022-12-17T12:30:30.795Z,82.36
2022-12-17T12:31:30.828Z,82.40
2022-12-17T12:32:30.712Z,82.19
2022-12-17T12:33:30.711Z,81.87
2022-12-17T12:34:30.691Z,82.29
2022-12-17T12:35:30.679Z,82.09
2022-12-17T12:36:30.678Z,81.87
2022-12-17T12:37:30.658Z,81.98
2022-12-17T12:38:30.662Z,81.87
2022-12-17T12:39:30.638Z,81.77
2022-12-17T12:40:30.630Z,81.98
2022-12-17T12:41:30.634Z,82.09
2022-12-17T12:42:30.608Z,82.19
2022-12-17T12:43:30.611Z,82.09
2022-12-17T12:44:30.588Z,82.09
2022-12-17T12:45:30.708Z,82.02
2022-12-17T12:46:30.568Z,82.19
2022-12-17T12:47:30.555Z,82.40
2022-12-17T12:48:30.573Z,82.29
2022-12-17T12:49:30.537Z,82.40
2022-12-17T12:50:30.525Z,82.09
2022-12-17T12:51:34.001Z,82.19
2022-12-17T12:52:30.503Z,82.33
2022-12-17T12:53:30.595Z,82.02